ダルエスサラーム の空港の天気 - METARとTAF

ジュリウス・ニエレレ国際空港(ダルエスサラーム) ( HTDA / DAR ) - タンザニア ダルエスサラーム
飛行場実況気象(Metar)
観測時間06/24 12:00 EAT (06/24 09:00 UTC)
風向・風速南南東 4m/s
視程10km以上
天気現象
全天の8割程度の雲 雲底高度 730m
気温30℃
湿度66%
気圧1015hPa
METARHTDA 240900Z 15008KT 9999 BKN024 30/23 Q1015 NOSIG
過去の天気等 Google飛行場航空写真 Wunderground天気予報

過去48時間のMETAR

飛行場予報(TAF)
発表時間: 6/24 08:00 EAT (6/24 05:00 UTC)
予報対象時間: 24日9時 EAT ~ 25日15時 EAT
風向・風速南南西 5m/s
視程10km以上
全天の8割程度の雲 雲底高度 610m
24日17時 EAT ~ 24日20時 EAT に徐々に
全天の4割程度の雲 雲底高度 790m
HTDA 240500Z 2406/2512 21010KT 9999 BKN020
BECMG 2414/2417 SCT026